Time;durP1;ratioP1;P1;durP2;ratioP2;P2;SDS_P1;SDS_P2;PMS_P1;PMS_P2;Temp;Humidity;BMP_temperature;BMP_pressure;BME280_temperature;BME280_humidity;BME280_pressure;Samples;Min_cycle;Max_cycle;Signal;HPM_P1;HPM_P2
2022/09/04 00:00:15;;;;;;;3.78;1.88;;;;;;;26.39;35.81;102003.75;4182543;28;20049;-69
2022/09/04 00:02:41;;;;;;;3.97;1.80;;;;;;;26.36;35.94;102008.81;4182780;28;20473;-69
2022/09/04 00:05:02;;;;;;;3.97;1.77;;;;;;;26.33;36.64;102006.59;4182766;28;20041;-69
2022/09/04 00:07:08;;;;;;;3.83;1.38;;;;;;;26.40;36.45;102008.25;4182745;28;20102;-69
2022/09/04 00:09:20;;;;;;;3.28;1.50;;;;;;;25.62;36.33;101880.88;4182465;28;20041;-69
2022/09/04 00:11:47;;;;;;;5.03;1.52;;;;;;;26.36;35.94;102013.59;4182216;28;20099;-69
2022/09/04 00:13:57;;;;;;;2.72;1.73;;;;;;;26.32;35.94;102024.56;4182304;28;20041;-68
2022/09/04 00:16:07;;;;;;;2.95;1.73;;;;;;;26.26;36.74;102017.31;4185727;28;20048;-69
2022/09/04 00:18:22;;;;;;;2.50;1.65;;;;;;;26.35;36.98;102025.97;4182405;28;20361;-69
2022/09/04 00:20:35;;;;;;;3.07;1.53;;;;;;;26.38;36.03;102032.94;4182487;28;20041;-68
2022/09/04 00:22:51;;;;;;;2.83;1.73;;;;;;;26.36;35.97;102036.06;4182609;28;20665;-68
2022/09/04 00:25:46;;;;;;;5.30;2.00;;;;;;;26.30;36.03;102040.03;4181838;28;20102;-70
2022/09/04 00:27:52;;;;;;;2.75;1.75;;;;;;;26.12;36.82;102005.09;4164530;28;20045;-68
2022/09/04 00:30:01;;;;;;;5.72;1.85;;;;;;;26.36;36.61;102034.06;4181910;28;20037;-69
2022/09/04 00:32:47;;;;;;;4.57;1.42;;;;;;;26.33;36.15;102039.44;4181613;28;20106;-68
2022/09/04 00:34:57;;;;;;;5.30;1.55;;;;;;;26.35;35.58;102046.44;4146994;28;20088;-68
2022/09/04 00:37:07;;;;;;;2.88;1.73;;;;;;;26.33;35.77;102054.28;4170520;28;20045;-68
2022/09/04 00:39:17;;;;;;;2.03;1.40;;;;;;;26.21;36.79;102038.97;4182235;28;20048;-68
2022/09/04 00:41:21;;;;;;;6.80;1.60;;;;;;;26.33;36.06;102051.50;4181765;28;20103;-69
2022/09/04 00:43:28;;;;;;;1.90;1.50;;;;;;;26.35;35.70;102051.22;4182401;28;20104;-69
2022/09/04 00:46:06;;;;;;;3.67;1.67;;;;;;;26.30;35.82;102045.66;4182248;28;20111;-68
2022/09/04 00:48:44;;;;;;;3.72;1.67;;;;;;;26.26;35.77;102051.00;4182260;28;20530;-69
2022/09/04 00:51:14;;;;;;;2.90;1.67;;;;;;;26.27;36.78;102055.47;4181740;28;20458;-69
2022/09/04 00:53:41;;;;;;;3.17;1.50;;;;;;;26.23;36.38;102048.75;4181550;28;20041;-69
2022/09/04 00:56:14;;;;;;;2.60;1.90;;;;;;;26.30;35.61;102060.50;4182099;28;20086;-69
2022/09/04 00:58:53;;;;;;;4.60;1.58;;;;;;;26.25;35.67;102051.25;4180522;28;20086;-69
2022/09/04 01:00:57;;;;;;;3.83;1.50;;;;;;;26.30;36.49;102057.72;4146115;28;20073;-68
2022/09/04 01:03:13;;;;;;;1.58;1.45;;;;;;;26.31;36.49;102059.38;4146909;28;20096;-69
2022/09/04 01:05:20;;;;;;;3.13;1.60;;;;;;;26.32;35.80;102055.44;4149850;28;20092;-69
2022/09/04 01:07:48;;;;;;;3.25;1.38;;;;;;;26.27;35.62;102061.09;4181737;28;20029;-69
2022/09/04 01:09:52;;;;;;;1.77;1.45;;;;;;;26.27;35.61;102061.09;4181701;28;20029;-69
2022/09/04 01:12:15;;;;;;;2.60;1.50;;;;;;;26.26;36.25;102064.19;4181484;28;20098;-69
2022/09/04 01:14:58;;;;;;;1.05;1.00;;;;;;;26.28;36.04;102062.75;4181669;28;20435;-69
2022/09/04 01:17:24;;;;;;;2.13;1.35;;;;;;;26.30;35.52;102060.50;4158494;28;20041;-68
2022/09/04 01:19:25;;;;;;;;;;;;;;;26.28;35.52;102067.53;4181643;28;20095;-68
2022/09/04 01:22:02;;;;;;;2.45;1.35;;;;;;;26.30;35.50;102065.28;4181055;28;19913;-68
2022/09/04 01:24:35;;;;;;;2.00;1.25;;;;;;;26.28;36.39;102068.38;4181396;28;20135;-69
2022/09/04 01:27:04;;;;;;;1.50;1.30;;;;;;;26.33;35.65;102071.13;4181673;28;20049;-68
2022/09/04 01:29:42;;;;;;;2.40;1.40;;;;;;;26.29;35.41;102070.03;4181725;28;20044;-69
2022/09/04 01:31:59;;;;;;;2.83;1.40;;;;;;;26.27;35.25;102077.91;4181349;28;20045;-69
2022/09/04 01:34:12;;;;;;;2.60;1.33;;;;;;;26.24;35.99;102084.09;4181808;28;20488;-69
2022/09/04 01:36:16;;;;;;;1.15;0.98;;;;;;;26.26;36.23;102076.25;4181281;28;20557;-69
2022/09/04 01:38:32;;;;;;;2.40;1.60;;;;;;;26.28;35.60;102081.56;4181362;28;20103;-68
2022/09/04 01:40:52;;;;;;;1.58;1.23;;;;;;;26.26;35.24;102079.06;4181097;28;20443;-68
2022/09/04 01:43:19;;;;;;;3.33;1.58;;;;;;;26.19;35.32;102080.50;4181180;28;20045;-68
2022/09/04 01:45:58;;;;;;;2.63;1.20;;;;;;;26.18;35.90;102082.47;4180641;28;20064;-67
2022/09/04 01:48:03;;;;;;;4.07;1.30;;;;;;;26.25;35.83;102076.53;4181433;28;20040;-68
2022/09/04 01:50:16;;;;;;;1.60;1.50;;;;;;;25.78;35.51;102011.44;4181617;28;20055;-68
2022/09/04 01:52:29;;;;;;;2.67;1.33;;;;;;;26.23;35.17;102076.81;4180979;28;20075;-68
2022/09/04 01:54:51;;;;;;;2.45;1.10;;;;;;;26.19;35.44;102083.31;4191830;28;20036;-67
2022/09/04 01:57:24;;;;;;;2.55;1.13;;;;;;;26.12;36.01;102069.59;4197449;28;20097;-70
2022/09/04 01:59:32;;;;;;;1.65;1.00;;;;;;;25.98;35.75;102041.34;4197572;28;20048;-70
2022/09/04 02:02:12;;;;;;;1.67;1.13;;;;;;;26.22;35.40;102080.75;4198088;28;20090;-70
2022/09/04 02:04:43;;;;;;;2.45;1.30;;;;;;;26.20;35.20;102085.81;4163903;28;20049;-70
2022/09/04 02:06:52;;;;;;;2.00;1.25;;;;;;;26.16;35.65;102078.25;4197961;28;20432;-69
2022/09/04 02:09:42;;;;;;;1.73;1.33;;;;;;;26.17;35.71;102088.38;4197859;28;20044;-70
2022/09/04 02:12:11;;;;;;;3.42;1.30;;;;;;;26.18;35.34;102079.66;4179800;28;20045;-69
2022/09/04 02:14:46;;;;;;;1.30;1.00;;;;;;;26.13;35.11;102068.47;4180760;28;20033;-70
2022/09/04 02:16:55;;;;;;;1.30;0.90;;;;;;;26.18;35.27;102085.28;4171525;28;20436;-69
2022/09/04 02:19:35;;;;;;;2.05;1.10;;;;;;;26.15;35.96;102085.00;4181134;28;20282;-69
2022/09/04 02:22:11;;;;;;;1.40;1.30;;;;;;;26.18;35.37;102088.06;4180806;28;20044;-69
2022/09/04 02:24:30;;;;;;;;;;;;;;;26.19;34.97;102086.94;4181490;28;20451;-70
2022/09/04 02:26:49;;;;;;;1.88;1.20;;;;;;;26.22;34.86;102085.53;4180734;28;20296;-70
2022/09/04 02:28:55;;;;;;;1.40;1.10;;;;;;;26.21;35.54;102081.91;4180835;28;20044;-69
2022/09/04 02:31:13;;;;;;;3.08;1.33;;;;;;;26.18;35.35;102085.28;4180854;28;20041;-70
2022/09/04 02:33:36;;;;;;;1.80;1.30;;;;;;;26.18;35.23;102078.81;4181185;28;20099;-70
2022/09/04 02:36:01;;;;;;;2.33;1.40;;;;;;;26.17;34.75;102089.22;4180110;28;20041;-70
2022/09/04 02:38:28;;;;;;;1.27;1.00;;;;;;;26.15;34.75;102085.00;4180952;28;20049;-70
2022/09/04 02:40:49;;;;;;;1.55;1.30;;;;;;;26.14;35.62;102086.13;4180680;28;20041;-69
2022/09/04 02:43:39;;;;;;;1.50;1.10;;;;;;;26.14;35.40;102081.38;4181050;28;20045;-70
2022/09/04 02:46:02;;;;;;;2.67;1.27;;;;;;;26.17;34.79;102088.38;4180334;28;20557;-70
2022/09/04 02:48:21;;;;;;;1.95;1.10;;;;;;;26.13;34.83;102085.31;4180815;28;20037;-69
2022/09/04 02:50:46;;;;;;;1.65;0.95;;;;;;;26.11;35.18;102087.53;4180536;28;20479;-67
2022/09/04 02:53:13;;;;;;;2.37;1.27;;;;;;;26.13;35.30;102098.50;4180447;28;20484;-69
2022/09/04 02:55:43;;;;;;;1.40;1.10;;;;;;;26.15;34.76;102091.44;4180888;28;20274;-69
2022/09/04 02:57:53;;;;;;;1.88;1.10;;;;;;;26.16;34.52;102101.56;4183518;28;20025;-69
2022/09/04 03:00:18;;;;;;;0.93;0.80;;;;;;;26.12;34.61;102102.44;4191066;28;20037;-70
2022/09/04 03:02:31;;;;;;;74.28;7.65;;;;;;;26.08;35.49;102107.78;4197142;28;20447;-69
2022/09/04 03:04:38;;;;;;;3.63;1.30;;;;;;;26.12;35.16;102103.28;4197539;28;20028;-73
2022/09/04 03:06:55;;;;;;;5.30;1.50;;;;;;;25.95;35.05;102069.13;4211533;28;20093;-71
2022/09/04 03:09:07;;;;;;;3.58;1.00;;;;;;;26.10;34.84;102102.69;4216406;28;20146;-70
2022/09/04 03:11:24;;;;;;;1.88;0.90;;;;;;;26.06;34.75;102101.59;4212502;28;20508;-67
2022/09/04 03:13:31;;;;;;;5.13;1.25;;;;;;;26.06;35.61;102099.63;4202652;28;20318;-77
2022/09/04 03:16:00;;;;;;;3.42;1.25;;;;;;;25.98;35.41;102082.56;4192593;28;20052;-71
2022/09/04 03:18:23;;;;;;;2.53;1.20;;;;;;;26.12;34.62;102097.66;4206022;28;20417;-73
2022/09/04 03:20:32;;;;;;;3.28;1.13;;;;;;;25.88;34.49;102060.19;4199867;28;20037;-74
2022/09/04 03:22:49;;;;;;;1.45;1.10;;;;;;;26.06;34.70;102093.19;4203847;28;20460;-73
2022/09/04 03:25:24;;;;;;;3.67;1.20;;;;;;;25.92;35.35;102075.31;4216752;28;20065;-74
2022/09/04 03:27:32;;;;;;;3.33;1.30;;;;;;;26.09;35.13;102096.25;4205040;28;20097;-75
2022/09/04 03:30:00;;;;;;;2.70;1.20;;;;;;;26.08;34.62;102096.56;4213128;28;20040;-72
2022/09/04 03:32:23;;;;;;;2.78;1.30;;;;;;;25.86;34.65;102054.88;4207965;28;20032;-71
2022/09/04 03:35:16;;;;;;;6.75;1.38;;;;;;;26.04;34.90;102092.66;4216177;28;20483;-72
2022/09/04 03:37:49;;;;;;;2.28;1.13;;;;;;;26.06;35.00;102098.78;4173396;28;20052;-74
2022/09/04 03:40:09;;;;;;;3.80;1.30;;;;;;;25.80;34.79;102048.47;4197831;28;20040;-73
2022/09/04 03:42:38;;;;;;;1.95;0.95;;;;;;;26.09;34.26;102092.63;4206502;28;20036;-71
2022/09/04 03:44:54;;;;;;;2.53;1.42;;;;;;;26.03;34.37;102089.00;4216259;28;20040;-74
2022/09/04 03:47:22;;;;;;;2.50;1.45;;;;;;;26.03;35.37;102093.78;4213168;28;20097;-73
2022/09/04 03:49:41;;;;;;;4.15;1.17;;;;;;;26.08;34.96;102082.53;4216185;28;20066;-73
2022/09/04 03:52:06;;;;;;;3.53;1.50;;;;;;;26.08;34.62;102090.94;4208756;28;20094;-73
2022/09/04 03:54:31;;;;;;;4.43;1.20;;;;;;;26.05;34.62;102083.09;4198977;28;20097;-73
2022/09/04 03:57:12;;;;;;;2.65;1.05;;;;;;;26.02;35.18;102090.09;4192462;28;20101;-74
2022/09/04 03:59:38;;;;;;;2.97;1.23;;;;;;;25.98;35.10;102074.16;4199271;28;20089;-73
2022/09/04 04:01:59;;;;;;;2.55;1.02;;;;;;;26.03;34.76;102072.19;4199364;28;20452;-73
2022/09/04 04:04:47;;;;;;;2.35;1.20;;;;;;;26.02;34.40;102075.25;4196011;28;20058;-73
2022/09/04 04:07:22;;;;;;;1.80;0.90;;;;;;;26.02;34.73;102081.69;4193780;28;20040;-73
2022/09/04 04:10:05;;;;;;;2.47;0.88;;;;;;;26.03;35.24;102088.16;4198345;28;20102;-73
2022/09/04 04:12:44;;;;;;;3.47;0.93;;;;;;;26.08;34.51;102082.53;4199124;28;20071;-73
2022/09/04 04:15:07;;;;;;;2.20;1.17;;;;;;;25.94;34.48;102073.06;4199058;28;20044;-73
2022/09/04 04:17:26;;;;;;;4.50;1.33;;;;;;;26.04;34.16;102093.47;4200696;28;20058;-76
2022/09/04 04:20:01;;;;;;;3.22;1.10;;;;;;;25.97;35.23;102084.53;4216019;28;20422;-73
2022/09/04 04:22:18;;;;;;;6.28;1.55;;;;;;;26.05;34.80;102086.75;4197763;28;20549;-73
2022/09/04 04:24:38;;;;;;;2.03;1.23;;;;;;;26.07;34.17;102089.25;4193317;28;20041;-72
2022/09/04 04:27:03;;;;;;;2.95;1.00;;;;;;;26.03;34.45;102093.78;4197513;28;20044;-72
2022/09/04 04:29:33;;;;;;;6.32;1.40;;;;;;;25.98;35.28;102079.75;4197402;28;20055;-72
2022/09/04 04:32:10;;;;;;;3.25;1.30;;;;;;;26.03;35.62;102088.16;4195333;28;20032;-72
2022/09/04 04:34:32;;;;;;;3.05;1.30;;;;;;;26.06;34.87;102081.97;4187398;28;20098;-73
2022/09/04 04:36:41;;;;;;;8.48;1.63;;;;;;;25.96;34.96;102065.19;4197764;28;20556;-72
2022/09/04 04:38:56;;;;;;;11.18;1.90;;;;;;;26.04;34.87;102078.63;4198148;28;20036;-71
2022/09/04 04:41:10;;;;;;;;;;;;;;;26.03;35.42;102079.75;4198543;28;20032;-72
2022/09/04 04:43:41;;;;;;;7.45;1.30;;;;;;;26.10;35.03;102078.28;4187753;28;19924;-73
2022/09/04 04:45:49;;;;;;;5.75;1.38;;;;;;;26.15;34.58;102080.22;4194560;28;20430;-71
2022/09/04 04:48:13;;;;;;;7.15;1.33;;;;;;;26.10;34.43;102072.69;4192304;28;20024;-72
2022/09/04 04:50:53;;;;;;;5.22;1.15;;;;;;;26.04;34.93;102071.03;4198505;28;20518;-72
2022/09/04 04:53:15;;;;;;;5.40;1.45;;;;;;;26.08;35.53;102074.13;4177653;28;20120;-72
2022/09/04 04:55:48;;;;;;;6.15;1.73;;;;;;;26.10;35.17;102071.84;4199267;28;20395;-72
2022/09/04 04:58:38;;;;;;;3.05;1.00;;;;;;;26.08;34.87;102068.50;4195933;28;20040;-72
2022/09/04 05:01:04;;;;;;;5.88;1.10;;;;;;;25.93;35.04;102048.94;4197371;28;20052;-72
2022/09/04 05:03:21;;;;;;;6.38;1.13;;;;;;;26.06;35.68;102067.94;4185282;28;20426;-72
2022/09/04 05:05:48;;;;;;;6.90;1.23;;;;;;;26.07;35.06;102064.00;4196303;28;20040;-72
2022/09/04 05:08:08;;;;;;;3.85;1.20;;;;;;;26.12;34.53;102060.34;4210897;28;20040;-72
2022/09/04 05:10:42;;;;;;;5.57;1.35;;;;;;;26.04;34.65;102061.78;4197941;28;20437;-72
2022/09/04 05:13:12;;;;;;;4.15;1.00;;;;;;;26.03;34.96;102057.31;4197353;28;20074;-72
2022/09/04 05:15:34;;;;;;;4.93;1.60;;;;;;;26.06;34.99;102056.72;4198063;28;20040;-72
2022/09/04 05:17:54;;;;;;;4.07;1.13;;;;;;;26.05;34.71;102057.84;4197814;28;20157;-72
2022/09/04 05:20:02;;;;;;;3.97;1.20;;;;;;;26.04;34.57;102061.78;4197711;28;20109;-73
2022/09/04 05:22:12;;;;;;;4.10;1.20;;;;;;;26.01;34.65;102062.34;4197146;28;20040;-71
2022/09/04 05:24:45;;;;;;;5.57;1.08;;;;;;;25.85;35.43;102042.81;4197896;28;20381;-72
2022/09/04 05:26:46;;;;;;;3.00;1.30;;;;;;;26.04;34.76;102064.59;4196635;28;20085;-72
2022/09/04 05:29:09;;;;;;;6.93;1.17;;;;;;;25.95;34.43;102043.88;4198372;28;20415;-72
2022/09/04 05:31:31;;;;;;;2.95;1.20;;;;;;;25.12;34.60;101916.47;4196156;28;20036;-72
2022/09/04 05:33:58;;;;;;;2.33;1.13;;;;;;;25.96;34.77;102048.38;4197204;28;20040;-72
2022/09/04 05:36:17;;;;;;;2.17;1.20;;;;;;;25.98;35.22;102052.56;4197898;28;20090;-72
2022/09/04 05:38:33;;;;;;;1.85;1.10;;;;;;;26.04;35.02;102054.22;4197816;28;20468;-73
2022/09/04 05:40:58;;;;;;;3.03;1.10;;;;;;;26.05;34.62;102057.84;4196138;28;20101;-72
2022/09/04 05:43:26;;;;;;;7.38;1.45;;;;;;;26.01;34.31;102062.34;4189009;28;20036;-73
2022/09/04 05:46:03;;;;;;;2.90;1.08;;;;;;;25.98;35.12;102055.38;4196718;28;20474;-72
2022/09/04 05:48:30;;;;;;;;;;;;;;;26.00;35.31;102050.31;4197949;28;20041;-72
2022/09/04 05:50:31;;;;;;;;;;;;;;;26.11;34.57;102045.47;4172849;28;19917;-72
2022/09/04 05:52:44;;;;;;;2.95;1.00;;;;;;;26.16;34.36;102051.06;4181267;28;20023;-72
2022/09/04 05:55:20;;;;;;;3.53;0.82;;;;;;;26.09;34.21;102042.13;4181148;28;20454;-72
2022/09/04 05:57:51;;;;;;;1.35;0.93;;;;;;;26.05;35.02;102053.06;4196260;28;20873;-71
2022/09/04 06:00:05;;;;;;;1.88;0.90;;;;;;;26.05;34.99;102046.63;4197650;28;20032;-73
2022/09/04 06:02:27;;;;;;;1.58;0.82;;;;;;;26.09;34.63;102042.13;4197692;28;20094;-72
2022/09/04 06:04:50;;;;;;;2.67;0.82;;;;;;;26.08;34.42;102040.44;4197185;28;20458;-72
2022/09/04 06:07:16;;;;;;;1.35;1.00;;;;;;;26.03;34.40;102043.28;4197592;28;20040;-72
2022/09/04 06:09:44;;;;;;;2.72;0.88;;;;;;;25.90;35.52;102018.69;4197925;28;20041;-72
2022/09/04 06:12:06;;;;;;;3.72;1.15;;;;;;;25.79;34.96;101999.09;4196645;28;20094;-72
2022/09/04 06:14:38;;;;;;;1.85;0.85;;;;;;;26.01;34.82;102037.13;4197817;28;20029;-73
2022/09/04 06:16:47;;;;;;;2.20;1.00;;;;;;;26.02;34.11;102030.38;4197471;28;20032;-72
2022/09/04 06:18:56;;;;;;;1.83;0.70;;;;;;;26.00;34.70;102029.84;4197663;28;20090;-72
2022/09/04 06:21:26;;;;;;;1.63;0.90;;;;;;;25.83;35.16;102008.59;4197177;28;20479;-73
2022/09/04 06:24:05;;;;;;;2.22;1.00;;;;;;;25.85;34.87;101997.97;4197546;28;20536;-73
2022/09/04 06:26:20;;;;;;;0.80;0.80;;;;;;;26.02;34.51;102019.16;4197101;28;20110;-72
2022/09/04 06:28:40;;;;;;;;;;;;;;;26.01;34.58;102023.09;4197266;28;20041;-72
2022/09/04 06:30:56;;;;;;;3.78;0.80;;;;;;;26.05;34.50;102021.38;4196876;28;19986;-71
2022/09/04 06:33:06;;;;;;;2.20;1.00;;;;;;;26.04;35.62;102017.75;4198292;28;20098;-72
2022/09/04 06:35:22;;;;;;;2.15;0.70;;;;;;;26.05;35.02;102012.97;4193507;28;20028;-72
2022/09/04 06:37:37;;;;;;;2.63;1.00;;;;;;;26.08;34.76;102009.59;4209941;28;20044;-72
2022/09/04 06:39:41;;;;;;;1.48;0.80;;;;;;;26.04;34.63;102011.31;4199186;28;20044;-72
2022/09/04 06:42:03;;;;;;;1.05;0.90;;;;;;;26.01;34.38;102017.47;4202830;28;20032;-71
2022/09/04 06:44:31;;;;;;;1.15;0.90;;;;;;;25.98;35.53;102015.25;4217448;28;20036;-73
2022/09/04 06:46:52;;;;;;;4.78;0.80;;;;;;;26.02;35.28;102021.97;4206282;28;20043;-72
2022/09/04 06:49:23;;;;;;;0.90;0.75;;;;;;;26.03;34.93;102016.06;4217124;28;20044;-72
2022/09/04 06:51:33;;;;;;;1.00;0.80;;;;;;;26.04;34.57;102011.31;4213143;28;20101;-72
2022/09/04 06:54:14;;;;;;;1.30;1.10;;;;;;;25.81;34.84;101991.25;4217205;28;20085;-72
2022/09/04 06:56:28;;;;;;;1.13;0.80;;;;;;;25.89;35.36;101992.63;4212783;28;20043;-72
2022/09/04 06:59:09;;;;;;;0.70;0.60;;;;;;;26.02;35.25;102016.34;4216841;28;20039;-71
2022/09/04 07:01:33;;;;;;;2.13;0.80;;;;;;;26.05;34.92;102010.16;4213453;28;20040;-71
2022/09/04 07:03:53;;;;;;;0.80;0.70;;;;;;;26.02;34.47;102007.94;4215597;28;20032;-71
2022/09/04 07:06:23;;;;;;;0.82;0.82;;;;;;;25.97;35.17;102007.97;4195326;28;20048;-71
2022/09/04 07:08:51;;;;;;;1.98;0.90;;;;;;;26.01;35.26;102006.25;4199942;28;20110;-71
2022/09/04 07:11:14;;;;;;;3.42;0.90;;;;;;;26.03;34.94;102004.03;4209758;28;20047;-71
2022/09/04 07:13:39;;;;;;;1.45;0.95;;;;;;;26.04;35.09;102011.31;4216649;28;20048;-72
2022/09/04 07:15:43;;;;;;;1.17;0.82;;;;;;;26.02;34.88;102008.78;4199171;28;20476;-71
2022/09/04 07:18:10;;;;;;;1.15;0.85;;;;;;;25.96;35.29;102004.34;4195116;28;20146;-70
2022/09/04 07:20:34;;;;;;;1.02;0.90;;;;;;;26.00;35.95;102004.59;4198602;28;20442;-71
2022/09/04 07:23:12;;;;;;;1.88;0.85;;;;;;;26.03;35.45;102004.03;4199580;28;20395;-71
2022/09/04 07:25:39;;;;;;;2.60;1.00;;;;;;;26.04;34.93;102005.69;4202537;28;20036;-71
2022/09/04 07:28:00;;;;;;;2.40;0.98;;;;;;;26.00;34.81;102008.22;4211737;28;20044;-71
2022/09/04 07:30:08;;;;;;;1.90;0.80;;;;;;;26.01;35.85;102001.50;4199350;28;20430;-71
2022/09/04 07:32:39;;;;;;;2.35;0.70;;;;;;;26.01;35.67;102003.47;4199306;28;20126;-72
2022/09/04 07:34:53;;;;;;;1.38;0.80;;;;;;;25.91;35.09;101975.50;4183067;28;20053;-71
2022/09/04 07:37:12;;;;;;;0.70;0.70;;;;;;;25.93;34.86;101987.25;4182754;28;20110;-71
2022/09/04 07:39:46;;;;;;;1.80;0.80;;;;;;;25.99;34.80;102008.53;4211933;28;20457;-71
2022/09/04 07:42:04;;;;;;;0.60;0.60;;;;;;;25.95;35.86;101999.03;4215199;28;20479;-71
2022/09/04 07:44:23;;;;;;;2.08;0.90;;;;;;;26.02;35.57;102007.94;4200882;28;20029;-71
2022/09/04 07:46:59;;;;;;;2.20;1.02;;;;;;;26.01;35.17;102007.09;4199329;28;20169;-71
2022/09/04 07:49:08;;;;;;;1.02;0.73;;;;;;;26.03;34.79;102001.22;4210164;28;20357;-71
2022/09/04 07:51:20;;;;;;;1.42;0.80;;;;;;;26.00;34.74;102004.59;4215776;28;20035;-72
2022/09/04 07:53:41;;;;;;;2.55;0.80;;;;;;;25.97;35.88;102002.34;4214380;28;20109;-72
2022/09/04 07:55:50;;;;;;;1.65;0.80;;;;;;;26.02;35.00;102002.31;4183214;28;20048;-70
2022/09/04 07:58:18;;;;;;;1.80;0.90;;;;;;;26.04;34.94;102005.69;4189529;28;20036;-71
2022/09/04 08:00:21;;;;;;;0.82;0.80;;;;;;;26.00;34.51;101998.97;4215999;28;20032;-72
2022/09/04 08:02:50;;;;;;;1.52;0.75;;;;;;;25.96;34.83;102003.50;4215478;28;20028;-71
2022/09/04 08:05:25;;;;;;;0.75;0.70;;;;;;;25.96;35.91;101997.88;4209353;28;20177;-71
2022/09/04 08:07:46;;;;;;;1.45;0.80;;;;;;;25.96;35.07;101992.28;4211340;28;20086;-71
2022/09/04 08:10:06;;;;;;;0.95;0.70;;;;;;;26.01;34.69;101990.28;4214915;28;20089;-71
2022/09/04 08:12:46;;;;;;;0.52;0.50;;;;;;;25.98;34.52;101995.63;4212805;28;20097;-72
2022/09/04 08:14:54;;;;;;;1.10;0.70;;;;;;;25.98;35.13;101987.19;4215910;28;20073;-71
2022/09/04 08:17:25;;;;;;;2.15;0.80;;;;;;;25.96;35.87;101993.09;4213562;28;20475;-72
2022/09/04 08:19:34;;;;;;;1.10;1.00;;;;;;;26.01;34.97;101981.84;4213291;28;20493;-71
2022/09/04 08:21:41;;;;;;;1.52;0.90;;;;;;;25.74;34.79;101962.66;4213115;28;20103;-71
2022/09/04 08:24:02;;;;;;;1.27;0.70;;;;;;;25.95;34.61;101988.63;4198360;28;20049;-73
2022/09/04 08:26:43;;;;;;;1.85;0.80;;;;;;;25.90;34.71;101990.66;4199010;28;20032;-71
2022/09/04 08:29:10;;;;;;;1.13;0.90;;;;;;;25.93;35.58;101992.84;4213036;28;20097;-71
2022/09/04 08:31:28;;;;;;;0.80;0.68;;;;;;;25.97;34.90;101993.94;4186479;28;20067;-72
2022/09/04 08:33:44;;;;;;;1.60;0.90;;;;;;;25.98;35.11;101995.63;4213427;28;20044;-71
2022/09/04 08:36:03;;;;;;;1.35;0.70;;;;;;;25.97;34.60;101991.97;4215819;28;20402;-71
2022/09/04 08:38:39;;;;;;;1.05;0.70;;;;;;;25.76;34.72;101966.03;4209649;28;20066;-71
2022/09/04 08:41:17;;;;;;;1.30;0.80;;;;;;;25.89;34.56;101992.63;4214976;28;20068;-71
2022/09/04 08:43:52;;;;;;;0.70;0.68;;;;;;;25.88;34.46;101995.69;4212048;28;20036;-71
2022/09/04 08:45:59;;;;;;;1.50;0.57;;;;;;;25.89;34.58;101991.75;4211947;28;20102;-71
2022/09/04 08:48:35;;;;;;;1.73;0.65;;;;;;;25.84;34.82;102001.03;4206967;28;20365;-71
2022/09/04 08:51:15;;;;;;;0.60;0.60;;;;;;;25.55;34.53;101945.66;4214664;28;20112;-71
2022/09/04 08:53:39;;;;;;;0.65;0.57;;;;;;;25.55;35.42;101948.47;4213153;28;20043;-71
2022/09/04 08:55:49;;;;;;;1.55;0.70;;;;;;;25.90;34.91;101994.28;4208847;28;20098;-71
2022/09/04 08:58:14;;;;;;;0.80;0.77;;;;;;;25.90;34.79;101988.69;4203479;28;20028;-72
2022/09/04 09:00:36;;;;;;;2.00;0.75;;;;;;;25.80;34.64;101978.38;4215144;28;20043;-71
2022/09/04 09:03:07;;;;;;;0.65;0.65;;;;;;;25.87;34.61;101999.63;4213013;28;20364;-71
2022/09/04 09:05:35;;;;;;;1.80;0.75;;;;;;;25.65;34.57;101970.00;4196079;28;20037;-71
2022/09/04 09:07:51;;;;;;;1.73;0.68;;;;;;;25.84;35.40;101987.88;4197114;28;20033;-71
2022/09/04 09:10:20;;;;;;;1.15;0.75;;;;;;;25.89;35.07;102002.97;4197925;28;20098;-71
2022/09/04 09:12:51;;;;;;;1.40;0.82;;;;;;;25.89;34.91;102000.16;4181277;28;20420;-70
2022/09/04 09:15:27;;;;;;;1.23;0.68;;;;;;;25.74;34.82;101982.28;4180426;28;20048;-71
2022/09/04 09:17:52;;;;;;;0.95;0.63;;;;;;;25.74;34.85;101979.47;4181638;28;20115;-70
2022/09/04 09:20:15;;;;;;;2.10;0.77;;;;;;;25.85;34.61;101997.97;4192414;28;20376;-70
2022/09/04 09:22:47;;;;;;;0.40;0.40;;;;;;;25.82;34.60;101997.69;4181149;28;20040;-70
2022/09/04 09:25:19;;;;;;;0.73;0.60;;;;;;;25.80;34.55;101997.16;4181516;28;20049;-70
2022/09/04 09:27:55;;;;;;;0.80;0.80;;;;;;;25.78;34.30;101997.41;4181458;28;20041;-72
2022/09/04 09:29:59;;;;;;;1.42;0.70;;;;;;;25.79;34.08;101999.09;4181354;28;20045;-73
2022/09/04 09:32:09;;;;;;;0.50;0.50;;;;;;;25.77;34.79;102001.34;4210053;28;20085;-72
2022/09/04 09:34:44;;;;;;;1.17;0.80;;;;;;;25.78;35.25;101997.41;4209453;28;20093;-72
2022/09/04 09:37:05;;;;;;;1.60;0.80;;;;;;;25.83;34.81;101993.75;4197586;28;20090;-72
2022/09/04 09:39:35;;;;;;;0.60;0.52;;;;;;;25.83;34.78;101980.56;4206339;28;20044;-73
2022/09/04 09:42:10;;;;;;;0.50;0.50;;;;;;;25.81;34.54;101988.44;4198318;28;20044;-71
2022/09/04 09:44:44;;;;;;;0.60;0.43;;;;;;;25.79;34.36;101987.03;4206122;28;20028;-71
2022/09/04 09:47:03;;;;;;;0.75;0.70;;;;;;;25.80;34.32;101983.97;4195124;28;20044;-71
2022/09/04 09:49:46;;;;;;;0.73;0.73;;;;;;;25.71;34.38;101985.66;4204221;28;20077;-72
2022/09/04 09:51:50;;;;;;;0.95;0.55;;;;;;;25.78;34.30;101990.97;4214218;28;20414;-71
2022/09/04 09:54:30;;;;;;;0.90;0.80;;;;;;;25.74;34.57;101989.84;4207328;28;20066;-71
2022/09/04 09:57:29;;;;;;;0.60;0.60;;;;;;;25.71;34.30;101993.25;4197435;28;20342;-71
2022/09/04 09:59:48;;;;;;;2.03;0.50;;;;;;;25.75;34.18;101992.38;4176988;28;20106;-71
2022/09/04 10:02:08;;;;;;;1.23;0.70;;;;;;;25.72;33.92;101987.34;4214026;28;20428;-71
2022/09/04 10:04:48;;;;;;;0.80;0.70;;;;;;;25.69;34.42;101987.06;4205917;28;20074;-71
2022/09/04 10:07:22;;;;;;;0.57;0.40;;;;;;;25.65;34.15;101985.97;4203226;28;20031;-71
2022/09/04 10:09:33;;;;;;;0.63;0.57;;;;;;;25.69;34.89;101985.09;4212789;28;20040;-71
2022/09/04 10:12:14;;;;;;;0.52;0.52;;;;;;;25.71;34.93;101982.88;4215004;28;20028;-71
2022/09/04 10:14:49;;;;;;;1.60;0.65;;;;;;;25.76;34.73;101982.88;4184811;28;20037;-72
2022/09/04 10:17:26;;;;;;;1.35;0.60;;;;;;;25.53;34.66;101945.13;4186717;28;20105;-71
2022/09/04 10:19:39;;;;;;;0.95;0.68;;;;;;;25.75;34.29;101981.16;4199244;28;20450;-72
2022/09/04 10:21:46;;;;;;;0.60;0.60;;;;;;;25.74;34.31;101982.28;4194284;28;20099;-71
2022/09/04 10:24:25;;;;;;;0.47;0.47;;;;;;;25.72;34.90;101983.69;4215750;28;20101;-71
2022/09/04 10:26:54;;;;;;;0.60;0.60;;;;;;;25.74;35.00;101985.06;4184541;28;20504;-71
2022/09/04 10:29:25;;;;;;;0.63;0.60;;;;;;;25.78;34.78;101976.97;4184371;28;20053;-71
2022/09/04 10:31:41;;;;;;;0.95;0.95;;;;;;;25.79;34.53;101982.28;4183553;28;20366;-71
2022/09/04 10:34:00;;;;;;;2.15;0.65;;;;;;;25.74;34.60;101979.47;4217183;28;20414;-71
2022/09/04 10:36:21;;;;;;;0.60;0.60;;;;;;;25.72;34.42;101981.72;4202498;28;20094;-71
2022/09/04 10:38:35;;;;;;;0.60;0.60;;;;;;;25.75;35.43;101986.78;4211436;28;20048;-70
2022/09/04 10:40:49;;;;;;;0.73;0.60;;;;;;;25.75;35.05;101992.38;4214190;28;20044;-71
2022/09/04 10:43:28;;;;;;;1.03;0.70;;;;;;;25.78;34.71;101994.63;4199869;28;20048;-71
2022/09/04 10:45:40;;;;;;;0.68;0.50;;;;;;;25.79;34.60;101987.88;4199257;28;20301;-71
2022/09/04 10:48:35;;;;;;;1.17;0.60;;;;;;;25.73;34.60;101989.00;4200045;28;20492;-71
2022/09/04 10:51:12;;;;;;;0.93;0.60;;;;;;;25.74;34.82;101995.44;4205904;28;20044;-71
2022/09/04 10:53:40;;;;;;;0.45;0.45;;;;;;;25.51;35.25;101957.72;4216955;28;20441;-71
2022/09/04 10:55:53;;;;;;;1.15;0.65;;;;;;;25.81;34.60;102005.25;4207912;28;20059;-71
2022/09/04 10:57:58;;;;;;;0.98;0.60;;;;;;;25.82;34.68;102004.13;4198512;28;20473;-72
2022/09/04 10:59:59;;;;;;;1.08;0.60;;;;;;;25.79;34.28;102004.69;4199849;28;20113;-72
2022/09/04 11:02:32;;;;;;;0.93;0.68;;;;;;;25.73;34.68;102014.25;4216347;28;20113;-72
2022/09/04 11:04:58;;;;;;;1.33;0.60;;;;;;;25.70;34.04;102012.00;4198339;28;20029;-71
2022/09/04 11:07:09;;;;;;;0.60;0.50;;;;;;;25.72;34.12;102012.56;4199974;28;20029;-71